الصفحة الرئيسية
METAR-TAF:

METAR-TAF

مطار :

NWS Office

Majuro, جزر مارشال

دائرة عرض: 07-05N, خط طول: 171-12E, ارتفاع: 4 متر

مراقبة الطقس الحالي

تاريخ ووقت الإصدار 16 دقيقة قبل الساعة 05:51UTC
ريح 10 عقدة من الشرق/الشمال الشرقي
درجة الحرارة 28°درجة مئوية
الرطوبة 84%
ضغط 1007 hPa
الرؤية: 24.1 كم
غيوم قليلة على ارتفاع 1500 قدم
غيوم متفرقة على ارتفاع 5000 قدم
غيوم مفككة على ارتفاع 12000 قدم
ملبد بالغيوم على ارتفاع 30000 قدم

METAR: PKMR 060551Z 07010KT 15SM FEW015 SCT050 BKN120 OVC300 28/25 A2973 RMK SLP069 60008 8/878 T02780245 10295 20278 55007

زمن: 18:07 (06:07 UTC)


TAF: مفقودة

أرصاد الطقس والتوقعات من أكثر من 4000 مطار (تقارير الطقس للمطار METAR والتنبؤ بالطقس بالمطارTAF).

المحطات المتاحة هي النقط الصفراء والحمراء على الخريطة.

حرك المؤشر فوق النقطة لمعرفة اسم المحطة.

ثم انقر لمعرفة أرصاد وتوقعات الطقس.

لتغيير الخارطة: اضغط على الأزرار الخضراء مع رمز الصليب الأسود للتكبير. على الزر الأخضر مع شرطة للتصغير، أو على الأسهم الخضراء للخرائط المجاورة.


METAR-TAF: